createdAt,value
2019-04-04T00:00:58.176Z,985.39
2019-04-04T00:01:58.175Z,985.44
2019-04-04T00:02:58.162Z,985.36
2019-04-04T00:03:58.158Z,985.32
2019-04-04T00:04:58.153Z,985.31
2019-04-04T00:05:58.168Z,985.35
2019-04-04T00:06:58.753Z,985.36
2019-04-04T00:08:00.029Z,985.39
2019-04-04T00:08:58.091Z,985.40
2019-04-04T00:09:58.074Z,985.39
2019-04-04T00:10:58.095Z,985.39
2019-04-04T00:11:58.056Z,985.38
2019-04-04T00:12:58.042Z,985.38
2019-04-04T00:13:58.041Z,985.51
2019-04-04T00:14:58.077Z,985.58
2019-04-04T00:15:58.073Z,985.61
2019-04-04T00:16:58.000Z,985.66
2019-04-04T00:17:57.995Z,985.65
2019-04-04T00:18:59.053Z,985.67
2019-04-04T00:20:00.614Z,985.66
2019-04-04T00:20:57.957Z,985.66
2019-04-04T00:21:57.966Z,985.66
2019-04-04T00:22:57.949Z,985.70
2019-04-04T00:23:57.947Z,985.70
2019-04-04T00:24:57.923Z,985.68
2019-04-04T00:25:57.921Z,985.70
2019-04-04T00:26:57.910Z,985.66
2019-04-04T00:27:57.917Z,985.65
2019-04-04T00:28:57.879Z,985.69
2019-04-04T00:29:57.857Z,985.71
2019-04-04T00:30:57.842Z,985.72
2019-04-04T00:31:57.864Z,985.68
2019-04-04T00:32:57.819Z,985.66
2019-04-04T00:33:57.826Z,985.69
2019-04-04T00:34:59.714Z,985.73
2019-04-04T00:35:57.808Z,985.70
2019-04-04T00:36:57.780Z,985.70
2019-04-04T00:37:58.640Z,985.74
2019-04-04T00:38:57.759Z,985.73
2019-04-04T00:39:57.768Z,985.68
2019-04-04T00:40:57.736Z,985.83
2019-04-04T00:41:57.724Z,985.81
2019-04-04T00:42:57.740Z,985.86
2019-04-04T00:43:57.703Z,985.86
2019-04-04T00:44:57.700Z,985.81
2019-04-04T00:46:00.477Z,985.83
2019-04-04T00:46:57.668Z,985.88
2019-04-04T00:47:57.658Z,985.83
2019-04-04T00:48:57.673Z,985.87
2019-04-04T00:49:57.632Z,985.77
2019-04-04T00:50:57.624Z,985.82
2019-04-04T00:51:57.615Z,985.82
2019-04-04T00:52:57.622Z,985.81
2019-04-04T00:53:57.629Z,985.83
2019-04-04T00:54:57.581Z,985.82
2019-04-04T00:55:57.578Z,985.78
2019-04-04T00:56:57.565Z,985.80
2019-04-04T00:57:57.548Z,985.70
2019-04-04T00:58:57.539Z,985.74
2019-04-04T00:59:57.579Z,985.73
2019-04-04T01:00:57.531Z,985.75
2019-04-04T01:01:57.694Z,985.76
2019-04-04T01:02:58.570Z,985.73
2019-04-04T01:04:00.340Z,985.81
2019-04-04T01:04:57.517Z,985.80
2019-04-04T01:05:57.504Z,985.79
2019-04-04T01:06:57.470Z,985.77
2019-04-04T01:07:57.458Z,985.80
2019-04-04T01:08:57.475Z,985.86
2019-04-04T01:09:57.584Z,985.80
2019-04-04T01:10:57.493Z,985.87
2019-04-04T01:11:57.437Z,985.81
2019-04-04T01:12:57.406Z,985.88
2019-04-04T01:13:57.862Z,985.88
2019-04-04T01:14:58.144Z,985.92
2019-04-04T01:15:57.348Z,985.88
2019-04-04T01:16:57.354Z,986.00
2019-04-04T01:17:57.330Z,985.93
2019-04-04T01:18:57.316Z,985.98
2019-04-04T01:19:57.303Z,985.91
2019-04-04T01:20:57.304Z,985.90
2019-04-04T01:21:57.314Z,985.92
2019-04-04T01:22:57.287Z,985.90
2019-04-04T01:23:58.415Z,985.97
2019-04-04T01:24:57.245Z,985.91
2019-04-04T01:25:57.239Z,985.90
2019-04-04T01:26:57.261Z,985.92
2019-04-04T01:27:57.250Z,985.92
2019-04-04T01:28:57.209Z,985.95
2019-04-04T01:29:57.195Z,985.99
2019-04-04T01:30:57.181Z,985.96
2019-04-04T01:31:57.183Z,985.98
2019-04-04T01:32:57.192Z,986.01
2019-04-04T01:33:57.157Z,985.98
2019-04-04T01:34:57.140Z,985.99
2019-04-04T01:35:57.125Z,985.98
2019-04-04T01:36:57.222Z,985.99
2019-04-04T01:37:58.253Z,985.98
2019-04-04T01:38:58.078Z,985.99
2019-04-04T01:39:57.089Z,985.99
2019-04-04T01:40:57.116Z,986.02
2019-04-04T01:41:57.064Z,986.03
2019-04-04T01:42:57.055Z,986.09
2019-04-04T01:44:04.823Z,986.05
2019-04-04T01:44:58.031Z,986.14
2019-04-04T01:45:57.072Z,986.15
2019-04-04T01:46:57.029Z,986.14
2019-04-04T01:47:56.999Z,986.17
2019-04-04T01:48:57.021Z,986.20
2019-04-04T01:49:56.991Z,986.23
2019-04-04T01:50:56.960Z,986.26
2019-04-04T01:51:57.905Z,986.19
2019-04-04T01:52:58.944Z,986.25
2019-04-04T01:53:56.971Z,986.21
2019-04-04T01:54:56.977Z,986.25
2019-04-04T01:55:56.911Z,986.28
2019-04-04T01:56:56.897Z,986.24
2019-04-04T01:57:56.902Z,986.22
2019-04-04T01:58:56.880Z,986.20
2019-04-04T01:59:56.879Z,986.20
2019-04-04T02:00:56.895Z,986.17
2019-04-04T02:01:56.940Z,986.18
2019-04-04T02:02:56.839Z,986.22
2019-04-04T02:03:56.840Z,986.22
2019-04-04T02:04:56.827Z,986.25
2019-04-04T02:05:58.164Z,986.27
2019-04-04T02:06:58.890Z,986.26
2019-04-04T02:07:56.781Z,986.30
2019-04-04T02:08:56.764Z,986.29
2019-04-04T02:09:56.763Z,986.28
2019-04-04T02:10:56.748Z,986.25
2019-04-04T02:11:56.756Z,986.29
2019-04-04T02:12:56.724Z,986.21
2019-04-04T02:13:56.724Z,986.27
2019-04-04T02:14:56.696Z,986.20
2019-04-04T02:15:56.694Z,986.17
2019-04-04T02:16:56.710Z,986.14
2019-04-04T02:17:56.675Z,986.14
2019-04-04T02:18:56.655Z,986.13
2019-04-04T02:19:56.647Z,986.21
2019-04-04T02:20:57.883Z,986.18
2019-04-04T02:21:57.871Z,986.23
2019-04-04T02:22:56.636Z,986.23
2019-04-04T02:23:56.604Z,986.26
2019-04-04T02:24:56.592Z,986.29
2019-04-04T02:25:56.583Z,986.26
2019-04-04T02:26:56.576Z,986.31
2019-04-04T02:27:56.598Z,986.30
2019-04-04T02:28:56.548Z,986.29
2019-04-04T02:29:56.577Z,986.25
2019-04-04T02:30:56.548Z,986.28
2019-04-04T02:31:56.512Z,986.30
2019-04-04T02:32:59.531Z,986.27
2019-04-04T02:33:56.521Z,986.27
2019-04-04T02:34:56.484Z,986.29
2019-04-04T02:35:56.473Z,986.28
2019-04-04T02:36:56.462Z,986.35
2019-04-04T02:37:56.446Z,986.38
2019-04-04T02:38:57.640Z,986.44
2019-04-04T02:39:56.432Z,986.42
2019-04-04T02:40:56.416Z,986.48
2019-04-04T02:41:56.420Z,986.51
2019-04-04T02:42:56.415Z,986.52
2019-04-04T02:43:59.357Z,986.53
2019-04-04T02:44:56.373Z,986.57
2019-04-04T02:45:56.431Z,986.65
2019-04-04T02:46:56.356Z,986.56
2019-04-04T02:47:56.339Z,986.58
2019-04-04T02:48:57.067Z,986.56
2019-04-04T02:50:00.652Z,986.53
2019-04-04T02:50:57.310Z,986.56
2019-04-04T02:51:56.297Z,986.58
2019-04-04T02:52:56.338Z,986.50
2019-04-04T02:53:56.313Z,986.44
2019-04-04T02:54:58.230Z,986.42
2019-04-04T02:55:56.262Z,986.36
2019-04-04T02:56:56.248Z,986.38
2019-04-04T02:57:56.226Z,986.35
2019-04-04T02:58:56.261Z,986.35
2019-04-04T02:59:56.242Z,986.34
2019-04-04T03:00:59.248Z,986.38
2019-04-04T03:01:56.206Z,986.37
2019-04-04T03:02:56.186Z,986.35
2019-04-04T03:03:56.205Z,986.34
2019-04-04T03:04:56.166Z,986.34
2019-04-04T03:05:56.154Z,986.34
2019-04-04T03:06:58.454Z,986.31
2019-04-04T03:07:56.128Z,986.32
2019-04-04T03:08:56.117Z,986.38
2019-04-04T03:09:56.100Z,986.36
2019-04-04T03:10:56.090Z,986.25
2019-04-04T03:11:56.088Z,986.30
2019-04-04T03:12:58.662Z,986.25
2019-04-04T03:13:56.095Z,986.20
2019-04-04T03:14:56.050Z,986.22
2019-04-04T03:15:56.030Z,986.21
2019-04-04T03:16:56.877Z,986.16
2019-04-04T03:17:56.046Z,986.23
2019-04-04T03:18:56.002Z,986.12
2019-04-04T03:19:55.992Z,986.20
2019-04-04T03:20:55.989Z,986.22
2019-04-04T03:21:56.207Z,986.19
2019-04-04T03:23:00.296Z,986.26
2019-04-04T03:23:55.959Z,986.23
2019-04-04T03:24:55.942Z,986.21
2019-04-04T03:25:55.925Z,986.26
2019-04-04T03:26:55.910Z,986.21
2019-04-04T03:27:58.410Z,986.21
2019-04-04T03:28:55.962Z,986.22
2019-04-04T03:29:55.883Z,986.16
2019-04-04T03:31:02.568Z,986.17
2019-04-04T03:31:56.864Z,986.11
2019-04-04T03:32:55.882Z,986.09
2019-04-04T03:33:55.881Z,986.01
2019-04-04T03:34:55.845Z,985.98
2019-04-04T03:35:57.541Z,986.01
2019-04-04T03:36:55.806Z,986.04
2019-04-04T03:37:55.802Z,986.06
2019-04-04T03:38:55.836Z,986.06
2019-04-04T03:39:55.806Z,986.11
2019-04-04T03:40:57.889Z,986.15
2019-04-04T03:41:55.767Z,986.18
2019-04-04T03:42:55.747Z,986.20
2019-04-04T03:43:55.727Z,986.17
2019-04-04T03:44:55.717Z,986.19
2019-04-04T03:46:00.321Z,986.18
2019-04-04T03:46:56.696Z,986.15
2019-04-04T03:47:55.684Z,986.10
2019-04-04T03:48:55.688Z,986.12
2019-04-04T03:49:57.624Z,986.11
2019-04-04T03:50:57.407Z,986.16
2019-04-04T03:51:55.645Z,986.13
2019-04-04T03:52:55.632Z,986.17
2019-04-04T03:53:55.626Z,986.05
2019-04-04T03:54:56.541Z,986.11
2019-04-04T03:56:00.223Z,986.06
2019-04-04T03:56:56.597Z,986.07
2019-04-04T03:57:55.569Z,986.01
2019-04-04T03:58:59.849Z,986.09
2019-04-04T03:59:55.544Z,986.07
2019-04-04T04:00:55.540Z,986.07
2019-04-04T04:01:55.564Z,986.10
2019-04-04T04:02:55.525Z,986.06
2019-04-04T04:03:55.775Z,986.10
2019-04-04T04:05:00.618Z,986.14
2019-04-04T04:05:56.495Z,986.15
2019-04-04T04:06:55.467Z,986.12
2019-04-04T04:07:55.492Z,986.25
2019-04-04T04:08:55.465Z,986.29
2019-04-04T04:09:59.343Z,986.29
2019-04-04T04:10:55.431Z,986.23
2019-04-04T04:11:55.413Z,986.25
2019-04-04T04:12:55.434Z,986.26
2019-04-04T04:13:55.389Z,986.31
2019-04-04T04:14:55.414Z,986.31
2019-04-04T04:15:55.370Z,986.36
2019-04-04T04:16:55.450Z,986.35
2019-04-04T04:17:55.348Z,986.35
2019-04-04T04:18:55.538Z,986.30
2019-04-04T04:19:55.335Z,986.26
2019-04-04T04:20:55.311Z,986.26
2019-04-04T04:21:55.304Z,986.20
2019-04-04T04:22:55.289Z,986.26
2019-04-04T04:23:57.021Z,986.21
2019-04-04T04:24:55.283Z,986.20
2019-04-04T04:25:55.261Z,986.20
2019-04-04T04:26:55.246Z,986.20
2019-04-04T04:27:55.242Z,986.27
2019-04-04T04:28:55.227Z,986.19
2019-04-04T04:29:55.242Z,986.19
2019-04-04T04:30:55.203Z,986.19
2019-04-04T04:31:55.195Z,986.17
2019-04-04T04:32:57.029Z,986.19
2019-04-04T04:33:55.174Z,986.14
2019-04-04T04:34:55.194Z,986.14
2019-04-04T04:35:55.156Z,986.16
2019-04-04T04:36:55.140Z,986.15
2019-04-04T04:37:55.135Z,986.14
2019-04-04T04:38:58.830Z,986.18
2019-04-04T04:39:55.149Z,986.19
2019-04-04T04:40:55.118Z,986.22
2019-04-04T04:41:55.079Z,986.26
2019-04-04T04:42:55.077Z,986.21
2019-04-04T04:43:55.061Z,986.19
2019-04-04T04:44:55.043Z,986.24
2019-04-04T04:45:55.064Z,986.17
2019-04-04T04:46:55.027Z,986.21
2019-04-04T04:47:57.090Z,986.19
2019-04-04T04:48:55.007Z,986.29
2019-04-04T04:49:55.597Z,986.26
2019-04-04T04:50:54.981Z,986.32
2019-04-04T04:51:55.020Z,986.23
2019-04-04T04:52:54.966Z,986.25
2019-04-04T04:53:54.954Z,986.21
2019-04-04T04:54:55.546Z,986.16
2019-04-04T04:55:54.946Z,986.19
2019-04-04T04:56:54.944Z,986.17
2019-04-04T04:57:56.476Z,986.15
2019-04-04T04:58:55.621Z,986.12
2019-04-04T04:59:54.876Z,986.12
2019-04-04T05:00:54.870Z,986.16
2019-04-04T05:01:54.870Z,986.18
2019-04-04T05:02:54.867Z,986.17
2019-04-04T05:03:56.558Z,986.19
2019-04-04T05:04:54.823Z,986.13
2019-04-04T05:05:54.828Z,986.13
2019-04-04T05:06:54.800Z,986.16
2019-04-04T05:07:55.144Z,986.08
2019-04-04T05:08:54.777Z,986.01
2019-04-04T05:09:54.764Z,986.00
2019-04-04T05:10:54.763Z,985.91
2019-04-04T05:11:54.750Z,985.94
2019-04-04T05:12:54.750Z,985.99
2019-04-04T05:13:56.051Z,985.98
2019-04-04T05:14:54.715Z,985.92
2019-04-04T05:15:54.722Z,985.91
2019-04-04T05:16:54.691Z,985.94
2019-04-04T05:17:54.683Z,986.03
2019-04-04T05:18:54.708Z,986.08
2019-04-04T05:19:54.658Z,986.07
2019-04-04T05:20:57.270Z,986.15
2019-04-04T05:21:54.634Z,986.16
2019-04-04T05:22:54.629Z,986.15
2019-04-04T05:23:54.639Z,986.16
2019-04-04T05:25:07.457Z,986.05
2019-04-04T05:25:55.598Z,986.09
2019-04-04T05:26:54.584Z,986.01
2019-04-04T05:27:54.573Z,986.00
2019-04-04T05:28:56.932Z,985.98
2019-04-04T05:29:54.608Z,985.98
2019-04-04T05:30:54.580Z,985.97
2019-04-04T05:31:54.545Z,985.96
2019-04-04T05:32:56.410Z,985.92
2019-04-04T05:33:54.525Z,985.95
2019-04-04T05:34:54.490Z,985.99
2019-04-04T05:35:54.494Z,985.96
2019-04-04T05:36:54.546Z,986.08
2019-04-04T05:37:54.455Z,986.04
2019-04-04T05:38:54.474Z,986.12
2019-04-04T05:39:55.362Z,986.06
2019-04-04T05:40:55.411Z,986.03
2019-04-04T05:41:54.414Z,986.08
2019-04-04T05:42:54.417Z,986.07
2019-04-04T05:43:54.394Z,986.13
2019-04-04T05:44:54.381Z,986.10
2019-04-04T05:45:54.409Z,986.11
2019-04-04T05:46:54.358Z,986.07
2019-04-04T05:47:55.924Z,986.09
2019-04-04T05:48:54.340Z,986.02
2019-04-04T05:49:54.335Z,986.05
2019-04-04T05:50:54.387Z,986.10
2019-04-04T05:51:54.327Z,986.14
2019-04-04T05:52:54.309Z,986.12
2019-04-04T05:53:54.287Z,986.12
2019-04-04T05:54:54.273Z,986.17
2019-04-04T05:55:54.260Z,986.14
2019-04-04T05:56:54.288Z,986.13
2019-04-04T05:57:54.264Z,986.13
2019-04-04T05:58:54.233Z,986.17
2019-04-04T05:59:55.952Z,986.24
2019-04-04T06:00:54.206Z,986.22
2019-04-04T06:01:54.249Z,986.26
2019-04-04T06:02:54.197Z,986.24
2019-04-04T06:03:54.192Z,986.28
2019-04-04T06:04:55.433Z,986.21
2019-04-04T06:05:54.149Z,986.17
2019-04-04T06:06:55.582Z,986.21
2019-04-04T06:07:54.162Z,986.16
2019-04-04T06:08:54.116Z,986.14
2019-04-04T06:09:54.108Z,986.20
2019-04-04T06:10:54.101Z,986.17
2019-04-04T06:11:54.089Z,986.14
2019-04-04T06:12:54.371Z,986.18
2019-04-04T06:13:54.064Z,986.13
2019-04-04T06:14:54.060Z,986.11
2019-04-04T06:15:54.048Z,986.12
2019-04-04T06:16:54.026Z,986.15
2019-04-04T06:17:54.017Z,986.13
2019-04-04T06:18:54.023Z,986.16
2019-04-04T06:19:53.998Z,986.18
2019-04-04T06:20:53.987Z,986.11
2019-04-04T06:21:53.980Z,986.16
2019-04-04T06:22:53.963Z,986.13
2019-04-04T06:23:56.004Z,986.08
2019-04-04T06:24:53.948Z,986.08
2019-04-04T06:25:53.926Z,986.03
2019-04-04T06:26:53.919Z,986.02
2019-04-04T06:27:53.915Z,985.98
2019-04-04T06:28:53.912Z,985.99
2019-04-04T06:29:53.900Z,985.97
2019-04-04T06:30:54.416Z,985.97
2019-04-04T06:31:53.866Z,985.97
2019-04-04T06:32:53.888Z,985.97
2019-04-04T06:33:53.851Z,985.89
2019-04-04T06:34:56.545Z,985.86
2019-04-04T06:35:53.824Z,985.86
2019-04-04T06:36:53.818Z,985.83
2019-04-04T06:37:53.798Z,985.78
2019-04-04T06:38:54.130Z,985.79
2019-04-04T06:39:54.457Z,985.75
2019-04-04T06:40:53.765Z,985.80
2019-04-04T06:41:53.758Z,985.82
2019-04-04T06:42:53.779Z,985.86
2019-04-04T06:43:53.740Z,985.83
2019-04-04T06:44:54.310Z,985.93
2019-04-04T06:45:53.713Z,985.97
2019-04-04T06:46:54.215Z,985.90
2019-04-04T06:47:55.251Z,985.94
2019-04-04T06:48:53.680Z,986.01
2019-04-04T06:49:53.678Z,985.95
2019-04-04T06:50:53.693Z,985.99
2019-04-04T06:51:53.647Z,986.01
2019-04-04T06:52:56.399Z,986.07
2019-04-04T06:53:54.448Z,986.02
2019-04-04T06:54:55.287Z,985.98
2019-04-04T06:55:53.597Z,986.05
2019-04-04T06:56:53.599Z,986.10
2019-04-04T06:57:53.583Z,986.16
2019-04-04T06:58:53.624Z,986.12
2019-04-04T06:59:53.555Z,986.08
2019-04-04T07:00:53.557Z,986.09
2019-04-04T07:01:53.542Z,986.07
2019-04-04T07:02:56.073Z,986.08
2019-04-04T07:03:53.511Z,986.08
2019-04-04T07:04:53.523Z,986.10
2019-04-04T07:05:53.493Z,986.08
2019-04-04T07:06:53.477Z,986.01
2019-04-04T07:07:53.468Z,986.03
2019-04-04T07:08:53.466Z,985.97
2019-04-04T07:09:53.471Z,985.87
2019-04-04T07:10:58.210Z,985.84
2019-04-04T07:11:54.430Z,985.81
2019-04-04T07:13:09.340Z,985.83
2019-04-04T07:13:54.427Z,985.84
2019-04-04T07:14:53.388Z,985.78
2019-04-04T07:16:06.304Z,985.79
2019-04-04T07:16:54.454Z,985.75
2019-04-04T07:17:53.433Z,985.74
2019-04-04T07:18:53.364Z,985.81
2019-04-04T07:19:53.339Z,985.79
2019-04-04T07:20:53.331Z,985.79
2019-04-04T07:21:53.316Z,985.81
2019-04-04T07:22:55.661Z,985.82
2019-04-04T07:23:53.330Z,985.76
2019-04-04T07:24:53.283Z,985.72
2019-04-04T07:25:53.666Z,985.77
2019-04-04T07:26:53.254Z,985.83
2019-04-04T07:27:53.270Z,985.80
2019-04-04T07:28:53.990Z,985.82
2019-04-04T07:29:56.576Z,985.79
2019-04-04T07:30:54.703Z,985.76
2019-04-04T07:31:53.202Z,985.71
2019-04-04T07:32:53.192Z,985.76
2019-04-04T07:33:53.213Z,985.73
2019-04-04T07:34:53.232Z,985.76
2019-04-04T07:35:53.161Z,985.77
2019-04-04T07:36:53.157Z,985.79
2019-04-04T07:37:57.087Z,985.81
2019-04-04T07:38:53.135Z,985.81
2019-04-04T07:39:53.133Z,985.74
2019-04-04T07:40:53.124Z,985.76
2019-04-04T07:41:53.091Z,985.73
2019-04-04T07:42:53.092Z,985.73
2019-04-04T07:43:53.108Z,985.80
2019-04-04T07:44:54.760Z,985.72
2019-04-04T07:45:55.308Z,985.69
2019-04-04T07:46:54.037Z,985.70
2019-04-04T07:47:53.028Z,985.73
2019-04-04T07:48:53.029Z,985.74
2019-04-04T07:49:53.286Z,985.72
2019-04-04T07:50:52.999Z,985.65
2019-04-04T07:51:53.004Z,985.64
2019-04-04T07:52:52.982Z,985.68
2019-04-04T07:53:52.988Z,985.76
2019-04-04T07:54:52.949Z,985.71
2019-04-04T07:55:52.938Z,985.70
2019-04-04T07:56:52.926Z,985.73
2019-04-04T07:57:52.925Z,985.81
2019-04-04T07:58:52.951Z,985.67
2019-04-04T07:59:52.899Z,985.70
2019-04-04T08:00:52.880Z,985.75
2019-04-04T08:01:52.869Z,985.78
2019-04-04T08:02:52.859Z,985.73
2019-04-04T08:03:52.878Z,985.77
2019-04-04T08:04:52.864Z,985.74
2019-04-04T08:05:52.828Z,985.72
2019-04-04T08:06:52.820Z,985.73
2019-04-04T08:07:52.809Z,985.67
2019-04-04T08:08:52.843Z,985.72
2019-04-04T08:09:52.793Z,985.79
2019-04-04T08:10:52.780Z,985.72
2019-04-04T08:11:52.776Z,985.72
2019-04-04T08:12:52.765Z,985.68
2019-04-04T08:13:52.742Z,985.60
2019-04-04T08:14:52.750Z,985.57
2019-04-04T08:15:52.719Z,985.54
2019-04-04T08:16:52.708Z,985.52
2019-04-04T08:17:52.706Z,985.49
2019-04-04T08:18:52.704Z,985.55
2019-04-04T08:19:59.545Z,985.56
2019-04-04T08:20:53.661Z,985.47
2019-04-04T08:21:52.713Z,985.49
2019-04-04T08:22:52.653Z,985.51
2019-04-04T08:23:52.648Z,985.53
2019-04-04T08:24:52.619Z,985.46
2019-04-04T08:25:52.634Z,985.54
2019-04-04T08:26:52.615Z,985.48
2019-04-04T08:27:52.588Z,985.45
2019-04-04T08:28:52.578Z,985.48
2019-04-04T08:29:52.577Z,985.51
2019-04-04T08:30:52.604Z,985.58
2019-04-04T08:31:52.590Z,985.58
2019-04-04T08:32:52.632Z,985.53
2019-04-04T08:33:52.522Z,985.51
2019-04-04T08:34:52.515Z,985.50
2019-04-04T08:36:05.116Z,985.48
2019-04-04T08:36:53.524Z,985.48
2019-04-04T08:37:52.479Z,985.50
2019-04-04T08:38:52.463Z,985.57
2019-04-04T08:39:52.545Z,985.48
2019-04-04T08:40:52.442Z,985.42
2019-04-04T08:41:52.650Z,985.50
2019-04-04T08:42:52.450Z,985.55
2019-04-04T08:43:52.410Z,985.46
2019-04-04T08:44:52.423Z,985.42
2019-04-04T08:45:52.400Z,985.40
2019-04-04T08:46:55.329Z,985.37
2019-04-04T08:47:52.381Z,985.34
2019-04-04T08:48:52.362Z,985.38
2019-04-04T08:49:52.365Z,985.33
2019-04-04T08:50:52.335Z,985.27
2019-04-04T08:51:52.326Z,985.24
2019-04-04T08:52:52.348Z,985.19
2019-04-04T08:53:52.313Z,985.18
2019-04-04T08:54:52.336Z,985.23
2019-04-04T08:55:52.283Z,985.23
2019-04-04T08:56:52.276Z,985.37
2019-04-04T08:57:52.260Z,985.28
2019-04-04T08:58:52.255Z,985.24
2019-04-04T08:59:52.234Z,985.17
2019-04-04T09:00:52.256Z,985.23
2019-04-04T09:01:52.212Z,985.23
2019-04-04T09:02:52.201Z,985.27
2019-04-04T09:03:52.199Z,985.23
2019-04-04T09:04:52.209Z,985.24
2019-04-04T09:05:52.174Z,985.21
2019-04-04T09:06:52.159Z,985.25
2019-04-04T09:07:52.174Z,985.25
2019-04-04T09:08:52.144Z,985.24
2019-04-04T09:09:52.319Z,985.25
2019-04-04T09:10:52.117Z,985.17
2019-04-04T09:11:52.165Z,985.24
2019-04-04T09:12:52.097Z,985.22
2019-04-04T09:13:52.081Z,985.21
2019-04-04T09:14:52.111Z,985.11
2019-04-04T09:15:52.157Z,985.07
2019-04-04T09:16:52.058Z,985.08
2019-04-04T09:17:52.036Z,985.11
2019-04-04T09:18:52.025Z,985.11
2019-04-04T09:19:52.020Z,985.17
2019-04-04T09:20:52.066Z,985.13
2019-04-04T09:21:52.000Z,985.10
2019-04-04T09:22:51.998Z,985.11
2019-04-04T09:23:51.969Z,985.16
2019-04-04T09:24:52.023Z,985.10
2019-04-04T09:26:04.658Z,985.13
2019-04-04T09:26:52.934Z,985.18
2019-04-04T09:27:51.936Z,985.21
2019-04-04T09:28:51.951Z,985.17
2019-04-04T09:29:51.911Z,985.18
2019-04-04T09:30:51.912Z,985.15
2019-04-04T09:31:51.883Z,985.17
2019-04-04T09:32:51.876Z,985.16
2019-04-04T09:33:51.864Z,985.14
2019-04-04T09:34:51.849Z,985.10
2019-04-04T09:35:51.921Z,985.11
2019-04-04T09:36:51.830Z,985.12
2019-04-04T09:37:51.819Z,985.05
2019-04-04T09:38:51.814Z,985.07
2019-04-04T09:39:51.795Z,985.01
2019-04-04T09:40:51.801Z,985.03
2019-04-04T09:41:51.804Z,985.04
2019-04-04T09:42:51.773Z,985.04
2019-04-04T09:43:51.771Z,985.05
2019-04-04T09:44:51.770Z,985.05
2019-04-04T09:45:51.753Z,985.01
2019-04-04T09:47:04.614Z,985.07
2019-04-04T09:47:52.721Z,985.01
2019-04-04T09:48:51.698Z,985.02
2019-04-04T09:49:51.736Z,985.01
2019-04-04T09:50:51.680Z,985.09
2019-04-04T09:51:51.679Z,985.08
2019-04-04T09:52:51.652Z,985.12
2019-04-04T09:53:53.298Z,985.10
2019-04-04T09:54:51.629Z,985.14
2019-04-04T09:55:51.619Z,985.11
2019-04-04T09:56:51.681Z,985.09
2019-04-04T09:57:51.612Z,985.06
2019-04-04T09:58:54.696Z,985.14
2019-04-04T09:59:51.582Z,985.16
2019-04-04T10:00:51.567Z,985.15
2019-04-04T10:01:51.548Z,985.19
2019-04-04T10:02:51.569Z,985.17
2019-04-04T10:03:51.538Z,985.20
2019-04-04T10:04:51.587Z,985.16
2019-04-04T10:05:51.504Z,985.20
2019-04-04T10:06:51.498Z,985.20
2019-04-04T10:07:51.596Z,985.24
2019-04-04T10:08:51.476Z,985.13
2019-04-04T10:09:51.465Z,985.14
2019-04-04T10:10:51.454Z,985.18
2019-04-04T10:11:51.451Z,985.16
2019-04-04T10:12:51.432Z,985.05
2019-04-04T10:13:51.439Z,985.10
2019-04-04T10:14:51.433Z,984.99
2019-04-04T10:15:51.398Z,985.00
2019-04-04T10:16:51.382Z,984.97
2019-04-04T10:17:51.380Z,985.01
2019-04-04T10:18:51.377Z,985.00
2019-04-04T10:19:51.377Z,985.02
2019-04-04T10:20:51.341Z,985.12
2019-04-04T10:21:51.365Z,984.99
2019-04-04T10:22:51.321Z,985.05
2019-04-04T10:23:51.305Z,984.98
2019-04-04T10:24:51.347Z,984.92
2019-04-04T10:25:51.286Z,984.92
2019-04-04T10:26:51.281Z,984.86
2019-04-04T10:27:51.273Z,984.82
2019-04-04T10:28:51.252Z,984.71
2019-04-04T10:29:51.288Z,984.75
2019-04-04T10:30:51.252Z,984.71
2019-04-04T10:31:51.243Z,984.76
2019-04-04T10:32:51.233Z,984.71
2019-04-04T10:33:51.199Z,984.73
2019-04-04T10:34:51.186Z,984.77
2019-04-04T10:35:51.199Z,984.74
2019-04-04T10:36:51.164Z,984.82
2019-04-04T10:37:51.161Z,984.77
2019-04-04T10:38:51.149Z,984.68
2019-04-04T10:39:51.140Z,984.75
2019-04-04T10:40:51.150Z,984.87
2019-04-04T10:41:51.113Z,984.83
2019-04-04T10:42:51.097Z,984.75
2019-04-04T10:43:51.088Z,984.78
2019-04-04T10:44:51.083Z,984.73
2019-04-04T10:45:51.082Z,984.75
2019-04-04T10:46:51.091Z,984.75
2019-04-04T10:47:51.040Z,984.71
2019-04-04T10:48:51.033Z,984.69
2019-04-04T10:49:51.035Z,984.66
2019-04-04T10:50:51.012Z,984.74
2019-04-04T10:51:51.021Z,984.67
2019-04-04T10:52:51.015Z,984.77
2019-04-04T10:53:50.980Z,984.68
2019-04-04T10:54:50.963Z,984.71
2019-04-04T10:55:50.953Z,984.66
2019-04-04T10:56:51.002Z,984.68
2019-04-04T10:57:50.964Z,984.68
2019-04-04T10:58:50.918Z,984.63
2019-04-04T10:59:54.557Z,984.63
2019-04-04T11:00:50.910Z,984.69
2019-04-04T11:01:50.891Z,984.65
2019-04-04T11:02:50.897Z,984.66
2019-04-04T11:03:50.901Z,984.66
2019-04-04T11:04:50.900Z,984.64
2019-04-04T11:05:50.848Z,984.73
2019-04-04T11:06:50.870Z,984.66
2019-04-04T11:07:50.847Z,984.66
2019-04-04T11:08:50.807Z,984.66
2019-04-04T11:09:50.807Z,984.67
2019-04-04T11:10:50.802Z,984.73
2019-04-04T11:11:50.788Z,984.72
2019-04-04T11:12:50.803Z,984.62
2019-04-04T11:13:50.778Z,984.62
2019-04-04T11:14:50.747Z,984.61
2019-04-04T11:15:50.731Z,984.66
2019-04-04T11:16:50.724Z,984.61
2019-04-04T11:17:50.709Z,984.54
2019-04-04T11:18:50.742Z,984.59
2019-04-04T11:19:50.695Z,984.60
2019-04-04T11:20:50.761Z,984.59
2019-04-04T11:21:50.698Z,984.65
2019-04-04T11:22:50.749Z,984.65
2019-04-04T11:23:50.646Z,984.64
2019-04-04T11:24:50.651Z,984.69
2019-04-04T11:25:50.638Z,984.72
2019-04-04T11:26:50.625Z,984.73
2019-04-04T11:27:50.662Z,984.80
2019-04-04T11:28:50.596Z,984.82
2019-04-04T11:29:50.580Z,984.81
2019-04-04T11:30:50.629Z,984.81
2019-04-04T11:31:50.571Z,984.79
2019-04-04T11:32:50.585Z,984.75
2019-04-04T11:33:50.538Z,984.80
2019-04-04T11:34:53.311Z,984.71
2019-04-04T11:35:50.522Z,984.74
2019-04-04T11:36:50.540Z,984.70
2019-04-04T11:37:50.496Z,984.74
2019-04-04T11:38:50.503Z,984.71
2019-04-04T11:39:54.927Z,984.73
2019-04-04T11:40:50.464Z,984.73
2019-04-04T11:41:50.461Z,984.69
2019-04-04T11:42:50.449Z,984.67
2019-04-04T11:43:50.448Z,984.73
2019-04-04T11:44:50.416Z,984.67
2019-04-04T11:45:50.420Z,984.69
2019-04-04T11:46:50.411Z,984.64
2019-04-04T11:47:50.409Z,984.62
2019-04-04T11:48:50.425Z,984.59
2019-04-04T11:49:50.362Z,984.55
2019-04-04T11:50:50.355Z,984.60
2019-04-04T11:51:50.347Z,984.60
2019-04-04T11:52:50.331Z,984.59
2019-04-04T11:53:50.350Z,984.57
2019-04-04T11:54:50.326Z,984.60
2019-04-04T11:55:50.314Z,984.57
2019-04-04T11:56:50.320Z,984.60
2019-04-04T11:57:50.280Z,984.57
2019-04-04T11:58:50.271Z,984.60
2019-04-04T11:59:50.302Z,984.62
2019-04-04T12:00:50.247Z,984.61
2019-04-04T12:01:50.236Z,984.57
2019-04-04T12:02:50.225Z,984.58
2019-04-04T12:03:50.261Z,984.62
2019-04-04T12:04:50.197Z,984.61
2019-04-04T12:05:50.188Z,984.64
2019-04-04T12:06:50.179Z,984.56
2019-04-04T12:07:50.172Z,984.52
2019-04-04T12:08:50.181Z,984.56
2019-04-04T12:09:50.179Z,984.50
2019-04-04T12:10:50.143Z,984.54
2019-04-04T12:11:50.127Z,984.58
2019-04-04T12:12:50.113Z,984.54
2019-04-04T12:13:50.630Z,984.54
2019-04-04T12:14:50.091Z,984.53
2019-04-04T12:15:50.103Z,984.52
2019-04-04T12:16:50.112Z,984.48
2019-04-04T12:17:50.063Z,984.50
2019-04-04T12:18:50.044Z,984.38
2019-04-04T12:19:50.033Z,984.34
2019-04-04T12:20:50.026Z,984.43
2019-04-04T12:21:50.039Z,984.41
2019-04-04T12:22:50.047Z,984.37
2019-04-04T12:23:51.412Z,984.30
2019-04-04T12:24:49.978Z,984.40
2019-04-04T12:25:49.969Z,984.32
2019-04-04T12:26:49.989Z,984.38
2019-04-04T12:27:49.956Z,984.30
2019-04-04T12:28:49.941Z,984.36